createdAt,value
2022-07-27T00:00:44.035Z,22.72
2022-07-27T00:03:16.509Z,22.71
2022-07-27T00:05:49.147Z,22.69
2022-07-27T00:08:23.143Z,22.67
2022-07-27T00:10:55.753Z,22.67
2022-07-27T00:13:28.764Z,22.66
2022-07-27T00:16:00.943Z,22.70
2022-07-27T00:18:33.022Z,22.69
2022-07-27T00:21:05.104Z,22.70
2022-07-27T00:23:37.139Z,22.67
2022-07-27T00:26:09.339Z,22.64
2022-07-27T00:28:41.685Z,22.61
2022-07-27T00:31:14.304Z,22.59
2022-07-27T00:33:46.778Z,22.56
2022-07-27T00:36:18.982Z,22.52
2022-07-27T00:38:51.181Z,22.49
2022-07-27T00:41:23.304Z,22.46
2022-07-27T00:43:58.352Z,22.44
2022-07-27T00:46:31.610Z,22.43
2022-07-27T00:49:04.272Z,22.40
2022-07-27T00:51:36.591Z,22.39
2022-07-27T00:54:08.674Z,22.37
2022-07-27T00:56:41.474Z,22.34
2022-07-27T00:59:14.583Z,22.30
2022-07-27T01:01:46.839Z,22.28
2022-07-27T01:04:19.398Z,22.27
2022-07-27T01:06:53.437Z,22.23
2022-07-27T01:09:43.674Z,22.22
2022-07-27T01:12:18.589Z,22.19
2022-07-27T01:14:52.213Z,22.17
2022-07-27T01:17:25.267Z,22.14
2022-07-27T01:19:58.306Z,22.16
2022-07-27T01:22:30.610Z,22.13
2022-07-27T01:25:02.804Z,22.14
2022-07-27T01:27:35.259Z,22.14
2022-07-27T01:30:09.481Z,22.14
2022-07-27T01:32:41.888Z,22.14
2022-07-27T01:35:13.972Z,22.15
2022-07-27T01:37:48.061Z,22.15
2022-07-27T01:40:20.078Z,22.15
2022-07-27T01:42:52.424Z,22.16
2022-07-27T01:45:24.914Z,22.17
2022-07-27T01:47:57.069Z,22.19
2022-07-27T01:50:29.238Z,22.19
2022-07-27T01:53:01.582Z,22.19
2022-07-27T01:55:35.813Z,22.21
2022-07-27T01:58:08.554Z,22.23
2022-07-27T02:00:41.191Z,22.25
2022-07-27T02:03:13.582Z,22.28
2022-07-27T02:05:45.877Z,22.30
2022-07-27T02:08:18.292Z,22.32
2022-07-27T02:11:07.913Z,22.35
2022-07-27T02:13:40.139Z,22.38
2022-07-27T02:16:17.213Z,22.42
2022-07-27T02:18:48.696Z,22.45
2022-07-27T02:21:20.911Z,22.48
2022-07-27T02:23:53.003Z,22.52
2022-07-27T02:26:25.005Z,22.56
2022-07-27T02:28:57.137Z,22.62
2022-07-27T02:31:32.742Z,22.66
2022-07-27T02:34:03.382Z,22.69
2022-07-27T02:36:35.517Z,22.72
2022-07-27T02:39:07.839Z,22.76
2022-07-27T02:41:40.023Z,22.80
2022-07-27T02:44:13.690Z,22.84
2022-07-27T02:46:46.219Z,22.90
2022-07-27T02:49:18.685Z,22.95
2022-07-27T02:51:52.502Z,22.99
2022-07-27T02:54:26.086Z,23.06
2022-07-27T02:56:58.699Z,23.11
2022-07-27T02:59:31.665Z,23.16
2022-07-27T03:02:03.837Z,23.22
2022-07-27T03:04:36.204Z,23.28
2022-07-27T03:07:09.281Z,23.35
2022-07-27T03:09:41.380Z,23.42
2022-07-27T03:12:13.591Z,23.50
2022-07-27T03:14:45.827Z,23.57
2022-07-27T03:17:18.097Z,23.65
2022-07-27T03:19:50.220Z,23.72
2022-07-27T03:22:22.612Z,23.78
2022-07-27T03:24:54.641Z,23.88
2022-07-27T03:27:26.724Z,23.94
2022-07-27T03:29:59.423Z,24.01
2022-07-27T03:32:33.126Z,24.07
2022-07-27T03:35:05.484Z,24.15
2022-07-27T03:37:37.851Z,24.22
2022-07-27T03:40:11.557Z,24.28
2022-07-27T03:42:43.813Z,24.37
2022-07-27T03:45:16.194Z,24.42
2022-07-27T03:47:51.019Z,24.49
2022-07-27T03:50:25.103Z,24.55
2022-07-27T03:52:57.527Z,24.61
2022-07-27T03:55:30.263Z,24.71
2022-07-27T03:58:02.886Z,24.78
2022-07-27T04:00:35.310Z,24.86
2022-07-27T04:03:07.836Z,24.92
2022-07-27T04:05:40.182Z,24.98
2022-07-27T04:08:12.365Z,25.04
2022-07-27T04:10:45.726Z,25.09
2022-07-27T04:13:18.441Z,25.18
2022-07-27T04:15:52.087Z,25.29
2022-07-27T04:18:24.440Z,25.35
2022-07-27T04:20:57.102Z,25.42
2022-07-27T04:23:29.454Z,25.49
2022-07-27T04:26:02.146Z,25.54
2022-07-27T04:28:34.756Z,25.60
2022-07-27T04:31:07.376Z,25.67
2022-07-27T04:33:40.099Z,25.78
2022-07-27T04:36:12.635Z,25.83
2022-07-27T04:38:45.540Z,25.92
2022-07-27T04:41:18.016Z,25.99
2022-07-27T04:43:50.471Z,26.07
2022-07-27T04:46:23.425Z,26.12
2022-07-27T04:48:55.961Z,26.20
2022-07-27T04:51:34.113Z,26.29
2022-07-27T04:54:01.855Z,26.36
2022-07-27T04:56:34.206Z,26.44
2022-07-27T04:59:06.520Z,26.51
2022-07-27T05:01:40.454Z,26.59
2022-07-27T05:04:13.111Z,26.67
2022-07-27T05:06:46.450Z,26.79
2022-07-27T05:09:22.534Z,26.83
2022-07-27T05:11:53.381Z,26.94
2022-07-27T05:14:25.847Z,27.01
2022-07-27T05:16:58.098Z,27.12
2022-07-27T05:19:39.734Z,27.22
2022-07-27T05:22:06.311Z,27.26
2022-07-27T05:24:38.829Z,27.37
2022-07-27T05:27:13.417Z,27.44
2022-07-27T05:29:46.475Z,27.54
2022-07-27T05:32:18.935Z,27.62
2022-07-27T05:34:51.615Z,27.74
2022-07-27T05:37:24.073Z,27.85
2022-07-27T05:39:56.245Z,27.96
2022-07-27T05:42:28.880Z,28.01
2022-07-27T05:45:03.461Z,28.10
2022-07-27T05:47:35.775Z,28.16
2022-07-27T05:50:08.547Z,28.21
2022-07-27T05:52:40.655Z,28.28
2022-07-27T05:55:14.166Z,28.38
2022-07-27T05:57:46.241Z,28.47
2022-07-27T06:00:19.230Z,28.56
2022-07-27T06:02:52.164Z,28.67
2022-07-27T06:05:24.946Z,28.75
2022-07-27T06:08:00.452Z,28.79
2022-07-27T06:10:34.760Z,28.80
2022-07-27T06:13:09.372Z,28.88
2022-07-27T06:15:41.619Z,28.98
2022-07-27T06:18:15.641Z,29.08
2022-07-27T06:20:48.845Z,29.18
2022-07-27T06:23:21.701Z,29.28
2022-07-27T06:25:54.216Z,29.37
2022-07-27T06:28:26.970Z,29.43
2022-07-27T06:30:59.752Z,29.52
2022-07-27T06:33:33.716Z,29.62
2022-07-27T06:36:09.230Z,29.64
2022-07-27T06:38:42.071Z,29.70
2022-07-27T06:41:14.157Z,29.79
2022-07-27T06:43:46.776Z,29.87
2022-07-27T06:46:19.368Z,29.91
2022-07-27T06:48:52.128Z,29.94
2022-07-27T06:51:25.410Z,29.93
2022-07-27T06:53:58.582Z,29.89
2022-07-27T06:56:31.566Z,29.88
2022-07-27T06:59:04.092Z,29.86
2022-07-27T07:01:37.369Z,29.89
2022-07-27T07:04:09.793Z,29.98
2022-07-27T07:06:42.495Z,30.01
2022-07-27T07:09:15.176Z,30.07
2022-07-27T07:11:47.975Z,30.14
2022-07-27T07:14:20.401Z,30.20
2022-07-27T07:16:53.790Z,30.26
2022-07-27T07:19:26.185Z,30.30
2022-07-27T07:21:59.400Z,30.40
2022-07-27T07:24:32.004Z,30.42
2022-07-27T07:27:04.487Z,30.49
2022-07-27T07:29:36.891Z,30.58
2022-07-27T07:32:10.295Z,30.68
2022-07-27T07:34:42.816Z,30.70
2022-07-27T07:37:15.846Z,30.78
2022-07-27T07:39:48.998Z,30.90
2022-07-27T07:42:21.647Z,30.98
2022-07-27T07:44:53.793Z,31.09
2022-07-27T07:47:28.235Z,31.13
2022-07-27T07:50:00.862Z,31.23
2022-07-27T07:52:33.635Z,31.22
2022-07-27T07:55:07.152Z,31.27
2022-07-27T07:57:40.851Z,31.26
2022-07-27T08:00:14.354Z,31.31
2022-07-27T08:02:51.831Z,31.35
2022-07-27T08:05:25.214Z,31.44
2022-07-27T08:07:57.491Z,31.54
2022-07-27T08:10:31.613Z,31.70
2022-07-27T08:13:05.695Z,31.77
2022-07-27T08:15:38.035Z,31.87
2022-07-27T08:18:10.164Z,32.04
2022-07-27T08:20:42.512Z,32.08
2022-07-27T08:23:15.108Z,32.02
2022-07-27T08:25:47.858Z,32.05
2022-07-27T08:28:20.030Z,32.16
2022-07-27T08:30:52.910Z,32.26
2022-07-27T08:33:25.131Z,32.45
2022-07-27T08:35:57.582Z,32.66
2022-07-27T08:38:30.770Z,32.83
2022-07-27T08:41:04.796Z,32.97
2022-07-27T08:43:37.548Z,33.19
2022-07-27T08:46:12.141Z,33.37
2022-07-27T08:48:45.014Z,33.69
2022-07-27T08:51:17.421Z,33.99
2022-07-27T08:53:53.175Z,34.28
2022-07-27T08:56:24.363Z,34.31
2022-07-27T08:58:56.908Z,34.44
2022-07-27T09:01:29.369Z,34.57
2022-07-27T09:04:01.917Z,34.76
2022-07-27T09:06:53.205Z,34.76
2022-07-27T09:09:22.740Z,34.80
2022-07-27T09:12:12.281Z,34.84
2022-07-27T09:14:49.794Z,34.66
2022-07-27T09:20:04.319Z,34.53
2022-07-27T09:22:56.394Z,34.59
2022-07-27T09:26:01.750Z,34.76
2022-07-27T09:28:07.200Z,34.70
2022-07-27T09:30:43.357Z,34.73
2022-07-27T09:33:17.746Z,34.67
2022-07-27T09:35:50.393Z,34.63
2022-07-27T09:38:24.750Z,34.96
2022-07-27T09:41:02.456Z,34.93
2022-07-27T09:44:29.799Z,34.99
2022-07-27T09:46:11.395Z,35.14
2022-07-27T09:48:44.402Z,35.12
2022-07-27T09:51:58.455Z,35.12
2022-07-27T09:53:51.375Z,35.21
2022-07-27T09:56:31.726Z,35.15
2022-07-27T09:59:05.846Z,35.09
2022-07-27T10:01:46.734Z,34.99
2022-07-27T10:04:14.198Z,34.98
2022-07-27T10:07:01.705Z,34.94
2022-07-27T10:09:21.413Z,34.89
2022-07-27T10:11:53.606Z,34.85
2022-07-27T10:14:27.332Z,34.89
2022-07-27T10:16:59.671Z,34.92
2022-07-27T10:19:37.641Z,34.93
2022-07-27T10:22:09.800Z,34.89
2022-07-27T10:24:41.927Z,34.77
2022-07-27T10:27:28.532Z,34.82
2022-07-27T10:30:00.952Z,34.83
2022-07-27T10:32:35.012Z,34.90
2022-07-27T10:35:09.227Z,35.02
2022-07-27T10:37:40.574Z,35.12
2022-07-27T10:40:32.677Z,35.44
2022-07-27T10:43:11.875Z,35.32
2022-07-27T10:46:00.070Z,35.44
2022-07-27T10:48:44.299Z,35.37
2022-07-27T10:51:14.456Z,35.25
2022-07-27T10:54:11.375Z,35.15
2022-07-27T10:56:26.599Z,35.05
2022-07-27T10:58:58.996Z,35.27
2022-07-27T11:01:31.299Z,35.63
2022-07-27T11:04:12.492Z,35.84
2022-07-27T11:07:22.582Z,35.91
2022-07-27T11:11:55.904Z,36.23
2022-07-27T11:14:31.710Z,36.22
2022-07-27T11:17:47.368Z,36.10
2022-07-27T11:19:41.406Z,35.99
2022-07-27T11:22:28.225Z,35.97
2022-07-27T11:24:50.569Z,36.22
2022-07-27T11:27:25.389Z,36.75
2022-07-27T11:29:57.635Z,37.29
2022-07-27T11:32:31.349Z,38.21
2022-07-27T11:35:10.658Z,38.21
2022-07-27T11:37:43.261Z,37.84
2022-07-27T11:40:48.210Z,37.28
2022-07-27T11:42:51.424Z,36.74
2022-07-27T11:45:33.445Z,36.42
2022-07-27T11:48:10.317Z,36.41
2022-07-27T11:51:00.909Z,36.43
2022-07-27T11:53:33.513Z,37.20
2022-07-27T11:56:06.638Z,37.22
2022-07-27T11:59:07.111Z,38.23
2022-07-27T12:01:42.439Z,39.21
2022-07-27T12:04:21.634Z,41.20
2022-07-27T12:07:03.574Z,42.75
2022-07-27T12:09:39.184Z,42.70
2022-07-27T12:12:20.117Z,42.76
2022-07-27T12:14:57.868Z,42.69
2022-07-27T12:17:38.037Z,43.69
2022-07-27T12:20:20.557Z,43.45
2022-07-27T12:22:56.540Z,43.72
2022-07-27T12:25:29.792Z,42.76
2022-07-27T12:28:07.506Z,41.39
2022-07-27T12:30:48.544Z,40.32
2022-07-27T12:33:38.091Z,39.40
2022-07-27T12:36:11.226Z,38.56
2022-07-27T12:38:49.599Z,37.78
2022-07-27T12:41:35.188Z,37.08
2022-07-27T12:44:12.201Z,36.40
2022-07-27T12:46:55.288Z,35.79
2022-07-27T12:49:29.382Z,35.35
2022-07-27T12:52:12.353Z,34.92
2022-07-27T12:54:45.084Z,34.57
2022-07-27T12:57:28.720Z,34.40
2022-07-27T12:59:51.049Z,34.34
2022-07-27T13:02:23.436Z,35.56
2022-07-27T13:04:55.673Z,36.08
2022-07-27T13:07:28.432Z,37.14
2022-07-27T13:10:02.921Z,37.99
2022-07-27T13:12:36.234Z,39.46
2022-07-27T13:15:10.233Z,41.82
2022-07-27T13:17:43.213Z,43.84
2022-07-27T13:20:16.851Z,45.88
2022-07-27T13:22:49.512Z,47.04
2022-07-27T13:25:22.453Z,47.63
2022-07-27T13:27:55.576Z,47.91
2022-07-27T13:30:27.636Z,48.36
2022-07-27T13:33:01.105Z,48.31
2022-07-27T13:35:33.481Z,47.52
2022-07-27T13:38:05.579Z,46.89
2022-07-27T13:40:37.758Z,46.13
2022-07-27T13:43:11.980Z,45.73
2022-07-27T13:45:44.216Z,44.55
2022-07-27T13:48:16.784Z,43.42
2022-07-27T13:50:49.226Z,42.14
2022-07-27T13:53:21.589Z,41.48
2022-07-27T13:55:53.883Z,40.88
2022-07-27T13:58:25.907Z,42.06
2022-07-27T14:00:58.243Z,43.41
2022-07-27T14:03:30.266Z,44.80
2022-07-27T14:06:02.878Z,46.18
2022-07-27T14:08:36.657Z,47.16
2022-07-27T14:11:09.067Z,47.76
2022-07-27T14:13:41.858Z,47.84
2022-07-27T14:16:14.176Z,48.31
2022-07-27T14:18:46.294Z,48.61
2022-07-27T14:21:18.678Z,48.85
2022-07-27T14:23:51.049Z,49.26
2022-07-27T14:26:23.427Z,48.07
2022-07-27T14:28:57.356Z,47.51
2022-07-27T14:31:28.844Z,47.74
2022-07-27T14:34:00.989Z,48.94
2022-07-27T14:36:34.118Z,48.18
2022-07-27T14:39:06.260Z,48.24
2022-07-27T14:41:43.941Z,48.57
2022-07-27T14:44:13.434Z,48.66
2022-07-27T14:46:45.815Z,49.04
2022-07-27T14:49:20.750Z,48.84
2022-07-27T14:51:52.869Z,48.57
2022-07-27T14:54:25.134Z,48.70
2022-07-27T14:56:57.588Z,48.56
2022-07-27T14:59:30.518Z,48.47
2022-07-27T15:02:04.433Z,48.37
2022-07-27T15:04:36.286Z,48.50
2022-07-27T15:07:08.671Z,49.89
2022-07-27T15:09:41.284Z,48.91
2022-07-27T15:12:13.756Z,49.07
2022-07-27T15:14:46.662Z,49.39
2022-07-27T15:17:19.724Z,49.06
2022-07-27T15:19:51.982Z,48.91
2022-07-27T15:22:24.470Z,50.18
2022-07-27T15:24:59.175Z,48.61
2022-07-27T15:27:33.701Z,48.12
2022-07-27T15:30:10.619Z,46.52
2022-07-27T15:32:43.194Z,44.65
2022-07-27T15:35:18.354Z,42.84
2022-07-27T15:37:54.674Z,41.45
2022-07-27T15:40:37.602Z,40.44
2022-07-27T15:43:13.720Z,39.62
2022-07-27T15:45:49.539Z,38.84
2022-07-27T15:48:23.705Z,38.07
2022-07-27T15:50:55.507Z,37.44
2022-07-27T15:53:29.110Z,37.63
2022-07-27T15:56:00.919Z,36.42
2022-07-27T15:58:34.054Z,36.62
2022-07-27T16:01:08.574Z,35.65
2022-07-27T16:03:43.300Z,35.30
2022-07-27T16:06:16.949Z,34.97
2022-07-27T16:08:50.943Z,34.66
2022-07-27T16:11:23.657Z,34.46
2022-07-27T16:13:56.047Z,34.20
2022-07-27T16:16:31.294Z,34.00
2022-07-27T16:19:13.688Z,33.79
2022-07-27T16:21:54.345Z,33.65
2022-07-27T16:24:14.406Z,33.52
2022-07-27T16:26:46.902Z,33.46
2022-07-27T16:29:19.864Z,33.47
2022-07-27T16:31:54.154Z,33.35
2022-07-27T16:34:29.474Z,33.13
2022-07-27T16:37:02.857Z,32.87
2022-07-27T16:39:36.585Z,32.62
2022-07-27T16:42:09.453Z,32.44
2022-07-27T16:44:42.547Z,32.21
2022-07-27T16:47:15.591Z,31.95
2022-07-27T16:49:48.405Z,31.73
2022-07-27T16:52:21.238Z,31.48
2022-07-27T16:54:53.931Z,31.22
2022-07-27T16:57:27.783Z,31.00
2022-07-27T17:00:04.101Z,30.77
2022-07-27T17:02:36.760Z,30.63
2022-07-27T17:05:10.381Z,30.51
2022-07-27T17:07:43.748Z,30.36
2022-07-27T17:10:27.226Z,30.23
2022-07-27T17:12:52.690Z,30.14
2022-07-27T17:15:26.466Z,30.02
2022-07-27T17:18:00.136Z,29.90
2022-07-27T17:20:35.546Z,29.82
2022-07-27T17:23:06.323Z,29.66
2022-07-27T17:25:38.977Z,29.79
2022-07-27T17:28:11.421Z,29.49
2022-07-27T17:30:44.054Z,29.44
2022-07-27T17:33:17.047Z,29.34
2022-07-27T17:35:49.829Z,29.23
2022-07-27T17:38:22.821Z,29.17
2022-07-27T17:40:55.775Z,29.12
2022-07-27T17:43:28.396Z,29.02
2022-07-27T17:46:00.976Z,28.99
2022-07-27T17:48:38.406Z,28.87
2022-07-27T17:51:12.194Z,28.79
2022-07-27T17:53:45.269Z,28.79
2022-07-27T17:56:18.233Z,28.74
2022-07-27T17:58:51.208Z,28.69
2022-07-27T18:01:47.083Z,28.69
2022-07-27T18:04:03.272Z,28.65
2022-07-27T18:06:36.342Z,28.65
2022-07-27T18:09:09.088Z,28.66
2022-07-27T18:11:41.819Z,28.62
2022-07-27T18:14:14.106Z,28.56
2022-07-27T18:16:47.238Z,28.50
2022-07-27T18:19:19.798Z,28.46
2022-07-27T18:21:52.481Z,28.42
2022-07-27T18:24:25.245Z,28.34
2022-07-27T18:26:59.586Z,28.25
2022-07-27T18:29:32.741Z,28.16
2022-07-27T18:32:05.447Z,28.06
2022-07-27T18:34:38.562Z,28.02
2022-07-27T18:37:10.693Z,27.96
2022-07-27T18:39:42.899Z,27.93
2022-07-27T18:42:14.940Z,27.88
2022-07-27T18:44:47.266Z,27.83
2022-07-27T18:47:19.438Z,27.79
2022-07-27T18:49:51.599Z,27.77
2022-07-27T18:52:24.023Z,27.74
2022-07-27T18:54:56.262Z,27.77
2022-07-27T18:57:29.242Z,27.79
2022-07-27T19:00:01.467Z,27.80
2022-07-27T19:02:38.938Z,27.90
2022-07-27T19:05:09.320Z,27.97
2022-07-27T19:07:43.635Z,28.05
2022-07-27T19:10:16.800Z,28.02
2022-07-27T19:12:48.586Z,28.18
2022-07-27T19:15:21.558Z,27.97
2022-07-27T19:17:53.916Z,27.87
2022-07-27T19:20:25.941Z,27.74
2022-07-27T19:22:59.805Z,27.63
2022-07-27T19:25:33.732Z,27.54
2022-07-27T19:28:06.326Z,27.41
2022-07-27T19:30:39.086Z,27.30
2022-07-27T19:33:11.212Z,27.25
2022-07-27T19:35:43.372Z,27.10
2022-07-27T19:38:15.370Z,27.06
2022-07-27T19:40:48.661Z,26.94
2022-07-27T19:43:20.731Z,26.87
2022-07-27T19:45:52.873Z,26.80
2022-07-27T19:48:25.233Z,26.72
2022-07-27T19:51:06.687Z,26.64
2022-07-27T19:53:35.789Z,26.54
2022-07-27T19:56:08.777Z,26.47
2022-07-27T19:58:40.821Z,26.39
2022-07-27T20:01:13.710Z,26.28
2022-07-27T20:03:52.365Z,26.16
2022-07-27T20:06:19.618Z,26.04
2022-07-27T20:08:53.929Z,25.91
2022-07-27T20:11:27.978Z,25.81
2022-07-27T20:14:02.608Z,25.69
2022-07-27T20:16:36.640Z,25.55
2022-07-27T20:19:09.099Z,25.44
2022-07-27T20:21:41.139Z,25.35
2022-07-27T20:24:14.220Z,25.24
2022-07-27T20:26:49.111Z,25.20
2022-07-27T20:29:20.047Z,25.10
2022-07-27T20:31:52.292Z,25.06
2022-07-27T20:34:26.587Z,25.01
2022-07-27T20:37:00.711Z,24.99
2022-07-27T20:39:33.855Z,24.94
2022-07-27T20:42:06.140Z,24.92
2022-07-27T20:44:38.213Z,24.92
2022-07-27T20:47:11.904Z,24.90
2022-07-27T20:49:43.909Z,24.86
2022-07-27T20:52:15.981Z,24.84
2022-07-27T20:54:47.989Z,24.79
2022-07-27T20:57:19.972Z,24.77
2022-07-27T20:59:52.241Z,24.73
2022-07-27T21:02:24.625Z,24.70
2022-07-27T21:04:56.739Z,24.66
2022-07-27T21:07:29.180Z,24.61
2022-07-27T21:10:01.658Z,24.54
2022-07-27T21:12:34.225Z,24.51
2022-07-27T21:15:12.783Z,24.48
2022-07-27T21:17:41.562Z,24.44
2022-07-27T21:20:15.055Z,24.41
2022-07-27T21:22:48.922Z,24.34
2022-07-27T21:25:22.340Z,24.27
2022-07-27T21:27:55.940Z,24.23
2022-07-27T21:30:29.667Z,24.16
2022-07-27T21:33:01.918Z,24.11
2022-07-27T21:35:34.318Z,24.06
2022-07-27T21:38:06.502Z,24.00
2022-07-27T21:40:38.539Z,23.96
2022-07-27T21:43:10.758Z,23.92
2022-07-27T21:45:49.715Z,23.90
2022-07-27T21:48:16.842Z,23.87
2022-07-27T21:50:49.194Z,23.83
2022-07-27T21:53:21.420Z,23.79
2022-07-27T21:55:53.861Z,23.78
2022-07-27T21:58:26.593Z,23.75
2022-07-27T22:00:58.864Z,23.73
2022-07-27T22:03:31.205Z,23.72
2022-07-27T22:06:04.010Z,23.73
2022-07-27T22:08:36.637Z,23.69
2022-07-27T22:11:09.071Z,23.68
2022-07-27T22:13:41.047Z,23.68
2022-07-27T22:16:13.457Z,23.65
2022-07-27T22:18:45.494Z,23.61
2022-07-27T22:21:17.673Z,23.61
2022-07-27T22:23:50.264Z,23.57
2022-07-27T22:26:22.381Z,23.56
2022-07-27T22:28:54.587Z,23.57
2022-07-27T22:31:26.835Z,23.56
2022-07-27T22:33:59.922Z,23.55
2022-07-27T22:36:32.995Z,23.53
2022-07-27T22:39:05.152Z,23.53
2022-07-27T22:41:37.481Z,23.50
2022-07-27T22:44:09.560Z,23.50
2022-07-27T22:46:41.695Z,23.46
2022-07-27T22:49:13.967Z,23.44
2022-07-27T22:51:49.689Z,23.45
2022-07-27T22:54:20.018Z,23.42
2022-07-27T22:56:52.217Z,23.41
2022-07-27T22:59:26.094Z,23.41
2022-07-27T23:01:58.425Z,23.42
2022-07-27T23:04:30.982Z,23.43
2022-07-27T23:07:03.161Z,23.41
2022-07-27T23:09:35.194Z,23.36
2022-07-27T23:12:07.987Z,23.32
2022-07-27T23:14:40.257Z,23.29
2022-07-27T23:17:12.489Z,23.23
2022-07-27T23:19:44.560Z,23.24
2022-07-27T23:22:17.444Z,23.24
2022-07-27T23:24:51.174Z,23.08
2022-07-27T23:27:23.450Z,23.08
2022-07-27T23:29:55.478Z,23.18
2022-07-27T23:32:27.612Z,23.16
2022-07-27T23:34:59.585Z,23.12
2022-07-27T23:37:32.778Z,23.10
2022-07-27T23:40:05.823Z,23.10
2022-07-27T23:42:38.802Z,23.07
2022-07-27T23:45:11.241Z,23.05
2022-07-27T23:47:43.443Z,23.04
2022-07-27T23:50:15.816Z,23.03
2022-07-27T23:52:47.986Z,23.02
2022-07-27T23:55:20.095Z,23.00
2022-07-27T23:57:52.225Z,22.98
